Data for 10/21/2017

Time Sea-Level Adjusted Pressure Absolute Pressure Temperature Relative Humidity Dew Point   
(mb) (inHg) (mb) (inHg) (C) (F) (%) (C) (F)
00:05 1012 29.88 841 24.83 1.9 35.5 67 -3.6 25.4
00:10 1012 29.88 841 24.83 1.8 35.3 67 -3.8 25.2
00:15 1012 29.88 841 24.83 1.8 35.2 65 -4.1 24.6
00:20 1012 29.88 841 24.83 1.7 35 65 -4.2 24.5
00:25 1012 29.88 842 24.86 1.7 35.1 66 -4.1 24.7
00:30 1012 29.88 842 24.86 1.8 35.2 61 -4.9 23.2
00:35 1012 29.88 842 24.86 1.9 35.4 61 -4.9 23.1
00:40 1012 29.88 842 24.86 2 35.5 61 -4.7 23.5
00:45 1013 29.91 842 24.86 1.9 35.4 61 -4.8 23.3
00:50 1013 29.91 842 24.86 1.8 35.3 62 -4.8 23.4
00:55 1013 29.91 842 24.86 1.7 35.1 59 -5.4 22.3
01:00 1013 29.91 842 24.86 1.8 35.2 59 -5.5 22.1
01:05 1013 29.91 842 24.86 1.9 35.3 57 -5.7 21.7
01:10 1013 29.91 842 24.86 2 35.6 57 -5.8 21.6
01:15 1013 29.91 842 24.86 2 35.7 56 -5.9 21.4
01:20 1013 29.91 842 24.86 2.1 35.7 56 -5.8 21.5
01:25 1013 29.91 842 24.86 2.1 35.7 57 -5.6 21.9
01:30 1013 29.91 842 24.86 2 35.7 57 -5.5 22
01:35 1013 29.91 842 24.86 2 35.6 56 -5.8 21.6
01:40 1013 29.91 842 24.86 1.7 35.1 58 -5.6 21.9
01:45 1013 29.91 842 24.86 1.5 34.7 59 -5.6 22
01:50 1013 29.91 842 24.86 1.3 34.4 60 -5.5 22.1
01:55 1013 29.91 842 24.86 1.3 34.3 61 -5.4 22.3
02:00 1013 29.91 842 24.86 1.3 34.3 61 -5.3 22.5
02:05 1013 29.91 843 24.89 1.4 34.5 61 -5.3 22.5
02:10 1013 29.91 843 24.89 1.5 34.7 61 -5.2 22.7
02:15 1013 29.91 843 24.89 1.4 34.6 62 -5.1 22.8
02:20 1014 29.94 843 24.89 1.4 34.5 63 -5 23.1
02:25 1014 29.94 843 24.89 1.2 34.2 65 -4.6 23.8
02:30 1014 29.94 843 24.89 1.2 34.1 61 -5.5 22
02:35 1014 29.94 843 24.89 1.4 34.5 57 -6.3 20.7
02:40 1014 29.94 843 24.89 1.7 35 58 -5.8 21.6
02:45 1014 29.94 843 24.89 1.7 35.1 57 -5.9 21.4
02:50 1014 29.94 843 24.89 1.7 35.1 58 -5.8 21.6
02:55 1014 29.94 843 24.89 1.7 35.1 56 -6.2 20.8
03:00 1014 29.94 843 24.89 1.8 35.2 58 -5.6 21.8
03:05 1014 29.94 843 24.89 1.8 35.2 55 -6.3 20.7
03:10 1014 29.94 843 24.89 1.8 35.2 58 -5.6 21.9
03:15 1014 29.94 843 24.89 1.8 35.3 58 -5.6 21.9
03:20 1014 29.94 843 24.89 1.8 35.3 57 -5.8 21.6
03:25 1014 29.94 843 24.89 2 35.5 53 -6.7 19.9
03:30 1014 29.94 843 24.89 2.2 36 53 -6.3 20.7
03:35 1014 29.94 843 24.89 2.3 36.2 53 -6.3 20.7
03:40 1014 29.94 843 24.89 2.3 36.2 54 -6.1 20.9
03:45 1014 29.94 843 24.89 2.3 36.1 54 -6.1 21
03:50 1014 29.94 843 24.89 2.3 36.1 54 -6.2 20.9
03:55 1014 29.94 844 24.92 2.3 36.2 55 -5.9 21.4
04:00 1014 29.94 843 24.89 2.2 36 55 -5.9 21.4
04:05 1014 29.94 843 24.89 2.2 35.9 55 -6 21.2
04:10 1014 29.94 844 24.92 2.2 35.9 55 -5.9 21.4
04:15 1014 29.94 844 24.92 2.1 35.8 57 -5.6 21.9
04:20 1014 29.94 844 24.92 2.1 35.7 55 -5.9 21.3
04:25 1014 29.94 844 24.92 2.1 35.8 55 -5.9 21.3
04:30 1015 29.97 844 24.92 2.1 35.8 55 -6 21.2
04:35 1015 29.97 844 24.92 2.1 35.8 55 -6.1 21
04:40 1015 29.97 844 24.92 2.1 35.7 55 -6 21.2
04:45 1015 29.97 844 24.92 2.1 35.7 56 -5.9 21.4
04:50 1015 29.97 844 24.92 2 35.7 56 -5.8 21.5
04:55 1015 29.97 844 24.92 2 35.6 56 -5.8 21.6
05:00 1015 29.97 844 24.92 1.9 35.4 55 -6.2 20.9
05:05 1015 29.97 844 24.92 2 35.7 54 -6.2 20.8
05:10 1015 29.97 844 24.92 2.1 35.8 54 -6.3 20.7
05:15 1015 29.97 844 24.92 2.3 36.1 53 -6.3 20.6
05:20 1015 29.97 844 24.92 2.3 36.2 53 -6.4 20.6
05:25 1015 29.97 844 24.92 2.3 36.2 53 -6.4 20.5
05:30 1015 29.97 844 24.92 2.4 36.2 52 -6.4 20.5
05:35 1015 29.97 844 24.92 2.4 36.2 54 -6.1 21
05:40 1015 29.97 844 24.92 2.3 36.1 53 -6.4 20.5
05:45 1015 29.97 844 24.92 2.4 36.3 53 -6.3 20.6
05:50 1015 29.97 844 24.92 2.4 36.4 53 -6.2 20.9
05:55 1015 29.97 844 24.92 2.4 36.3 54 -5.9 21.5
06:00 1015 29.97 844 24.92 2.3 36.2 55 -5.9 21.4
06:05 1015 29.97 844 24.92 2.3 36.2 55 -5.8 21.5
06:10 1015 29.97 844 24.92 2.3 36.1 55 -5.8 21.6
06:15 1015 29.97 844 24.92 2.2 36 56 -5.7 21.8
06:20 1015 29.97 845 24.95 2.2 36 57 -5.5 22.1
06:25 1015 29.97 845 24.95 2.2 35.9 57 -5.4 22.3
06:30 1015 29.97 845 24.95 2 35.6 59 -5.3 22.5
06:35 1015 29.97 845 24.95 1.8 35.3 59 -5.3 22.5
06:40 1015 29.97 845 24.95 1.8 35.3 59 -5.2 22.6
06:45 1015 29.97 845 24.95 1.8 35.3 60 -5.1 22.8
06:50 1015 29.97 845 24.95 1.8 35.3 60 -5.2 22.7
06:55 1015 29.97 845 24.95 1.7 35.1 60 -5.2 22.7
07:00 1015 29.97 845 24.95 1.7 35.1 61 -5.1 22.8
07:05 1015 29.97 845 24.95 1.7 35.1 59 -5.4 22.3
07:10 1016 30 845 24.95 1.9 35.4 58 -5.5 22.1
07:15 1016 30 845 24.95 2 35.6 57 -5.7 21.8
07:20 1016 30 845 24.95 2.1 35.9 56 -5.7 21.7
07:25 1016 30 845 24.95 2.2 36 56 -5.7 21.7
07:30 1016 30 845 24.95 2.2 36 55 -5.9 21.4
07:35 1016 30 845 24.95 2.2 35.9 56 -5.7 21.8
07:40 1016 30 845 24.95 2.1 35.7 57 -5.7 21.8
07:45 1016 30 845 24.95 2 35.6 57 -5.7 21.7
07:50 1016 30 845 24.95 2 35.6 56 -5.8 21.6
07:55 1016 30 845 24.95 2 35.6 58 -5.5 22.1
08:00 1016 30 845 24.95 2 35.5 57 -5.7 21.7
08:05 1016 30 845 24.95 2 35.7 55 -6 21.2
08:10 1016 30 845 24.95 2.1 35.8 57 -5.6 22
08:15 1016 30 845 24.95 2 35.6 57 -5.5 22.1
08:20 1016 30 845 24.95 2 35.6 57 -5.5 22
08:25 1016 30 845 24.95 2.2 35.9 59 -5.1 22.8
08:30 1016 30 845 24.95 2.1 35.8 57 -5.5 22.2
08:35 1016 30 845 24.95 2.2 35.9 57 -5.6 22
08:40 1016 30 845 24.95 2.2 36 57 -5.4 22.4
08:45 1016 30 845 24.95 2.1 35.8 56 -5.7 21.8
08:50 1016 30 845 24.95 2.2 35.9 57 -5.5 22.1
08:55 1016 30 845 24.95 2.1 35.9 57 -5.4 22.3
09:00 1016 30 846 24.98 2.1 35.8 57 -5.5 22.1
09:05 1016 30 846 24.98 2.2 36 57 -5.4 22.3
09:10 1017 30.03 846 24.98 2.3 36.1 58 -5.2 22.6
09:15 1017 30.03 846 24.98 2.2 36 59 -5 23.1
09:20 1017 30.03 846 24.98 2.3 36.1 58 -5.2 22.7
09:25 1017 30.03 846 24.98 2.4 36.3 57 -5.4 22.3
09:30 1017 30.03 846 24.98 2.6 36.7 55 -5.5 22.1
09:35 1017 30.03 846 24.98 2.8 37.1 54 -5.7 21.7
09:40 1017 30.03 846 24.98 2.9 37.3 54 -5.6 22
09:45 1017 30.03 846 24.98 3 37.3 53 -5.8 21.6
09:50 1017 30.03 846 24.98 2.9 37.3 53 -5.8 21.5
09:55 1017 30.03 846 24.98 3 37.3 51 -6.2 20.8
10:00 1017 30.03 846 24.98 3.1 37.6 51 -6.2 20.9
10:05 1017 30.03 846 24.98 3.2 37.8 49 -6.5 20.4
10:10 1017 30.03 846 24.98 3.3 38 48 -6.7 19.9
10:15 1017 30.03 846 24.98 3.4 38.2 47 -6.7 19.9
10:20 1017 30.03 846 24.98 3.5 38.3 47 -6.9 19.7
10:25 1017 30.03 846 24.98 3.3 38 50 -6.1 21.1
10:30 1017 30.03 846 24.98 3.1 37.6 51 -5.9 21.3
10:35 1017 30.03 846 24.98 3.2 37.7 49 -6.5 20.3
10:40 1017 30.03 846 24.98 3.7 38.7 47 -6.6 20.2
10:45 1017 30.03 846 24.98 4.4 39.9 43 -7.1 19.2
10:50 1017 30.03 846 24.98 4.8 40.7 39 -7.8 17.9
10:55 1017 30.03 846 24.98 4.8 40.7 40 -7.6 18.3
11:00 1017 30.03 846 24.98 5.1 41.1 40 -7.5 18.5
11:05 1017 30.03 846 24.98 5.3 41.5 39 -7.6 18.3
11:10 1017 30.03 846 24.98 5 41 41 -7.1 19.3
11:15 1017 30.03 846 24.98 5.2 41.3 38 -8.1 17.4
11:20 1017 30.03 846 24.98 5.1 41.2 38 -7.9 17.7
11:25 1017 30.03 846 24.98 5.3 41.5 38 -7.9 17.9
11:30 1017 30.03 846 24.98 5.4 41.8 39 -7.6 18.3
11:35 1017 30.03 846 24.98 5.4 41.7 38 -7.9 17.8
11:40 1017 30.03 846 24.98 5.4 41.7 37 -8.2 17.3
11:45 1017 30.03 846 24.98 5.4 41.7 37 -8.1 17.4
11:50 1017 30.03 846 24.98 5.1 41.2 37 -8.3 17
11:55 1017 30.03 846 24.98 5 41.1 37 -8.5 16.7
12:00 1017 30.03 846 24.98 5.2 41.3 37 -8.3 17.1
12:05 1017 30.03 846 24.98 5.7 42.2 36 -8.4 16.8
12:10 1017 30.03 846 24.98 6 42.7 35 -8.4 17
12:15 1017 30.03 846 24.98 5.7 42.3 37 -7.8 18
12:20 1017 30.03 846 24.98 5.4 41.7 36 -8.6 16.5
12:25 1017 30.03 846 24.98 5.5 41.9 36 -8.3 17
12:30 1017 30.03 846 24.98 5.9 42.7 34 -8.7 16.4
12:35 1017 30.03 846 24.98 6.3 43.4 33 -8.9 16
12:40 1017 30.03 846 24.98 6.5 43.7 31 -9.4 15.1
12:45 1017 30.03 846 24.98 6.4 43.6 30 -9.9 14.2
12:50 1017 30.03 846 24.98 6.6 43.8 30 -9.7 14.5
12:55 1017 30.03 846 24.98 6.5 43.7 30 -9.7 14.6
13:00 1017 30.03 846 24.98 6.3 43.4 31 -9.6 14.7
13:05 1017 30.03 846 24.98 6.2 43.2 30 -9.9 14.1
13:10 1017 30.03 846 24.98 6.6 43.8 30 -9.8 14.4
13:15 1017 30.03 846 24.98 6.8 44.2 30 -9.7 14.5
13:20 1017 30.03 846 24.98 6.4 43.6 30 -9.9 14.2
13:25 1017 30.03 846 24.98 6.9 44.3 29 -10 14.1
13:30 1017 30.03 846 24.98 6.8 44.3 30 -9.7 14.5
13:35 1017 30.03 846 24.98 7.1 44.8 29 -10 14.1
13:40 1017 30.03 846 24.98 7.5 45.4 29 -9.6 14.7
13:45 1017 30.03 846 24.98 7.5 45.5 28 -9.8 14.3
13:50 1017 30.03 846 24.98 7.5 45.4 29 -9.6 14.7
13:55 1017 30.03 846 24.98 7.6 45.7 27 -10 14
14:00 1017 30.03 846 24.98 7.5 45.5 28 -9.8 14.4
14:05 1017 30.03 846 24.98 7.6 45.6 27 -10.3 13.5
14:10 1017 30.03 846 24.98 7.5 45.4 27 -10.6 13
14:15 1017 30.03 846 24.98 7.3 45.1 28 -10.1 13.7
14:20 1017 30.03 846 24.98 7.3 45.1 27 -10.4 13.2
14:25 1017 30.03 846 24.98 7.4 45.3 27 -10.4 13.3
14:30 1017 30.03 846 24.98 7.4 45.2 27 -10.4 13.2
14:35 1017 30.03 846 24.98 7.5 45.4 26 -10.8 12.5
14:40 1017 30.03 846 24.98 7.4 45.3 27 -10.6 12.9
14:45 1017 30.03 846 24.98 7.5 45.6 27 -10.4 13.3
14:50 1017 30.03 846 24.98 7.8 46.1 26 -10.6 12.9
14:55 1017 30.03 846 24.98 8.1 46.6 26 -10.5 13.1
15:00 1017 30.03 846 24.98 7.7 45.9 27 -10.2 13.6
15:05 1017 30.03 846 24.98 8.2 46.8 25 -10.6 13
15:10 1017 30.03 846 24.98 8.2 46.7 26 -10.4 13.3
15:15 1017 30.03 846 24.98 8.1 46.7 26 -10.1 13.8
15:20 1017 30.03 846 24.98 8.3 46.9 25 -10.6 12.9
15:25 1017 30.03 846 24.98 8.2 46.7 25 -10.5 13.2
15:30 1017 30.03 846 24.98 8.3 47 26 -10.1 13.7
15:35 1017 30.03 846 24.98 8.7 47.7 25 -10.4 13.2
15:40 1017 30.03 846 24.98 8.2 46.7 26 -10.1 13.7
15:45 1017 30.03 846 24.98 7.5 45.5 27 -10.4 13.4
15:50 1017 30.03 846 24.98 7.4 45.3 26 -10.7 12.7
15:55 1017 30.03 846 24.98 7.5 45.5 27 -10.2 13.6
16:00 1017 30.03 846 24.98 7.7 45.9 28 -9.7 14.5
16:05 1017 30.03 846 24.98 7.6 45.7 28 -9.8 14.3
16:10 1017 30.03 846 24.98 7.5 45.6 28 -9.9 14.1
16:15 1017 30.03 846 24.98 7.6 45.7 28 -9.8 14.3
16:20 1017 30.03 846 24.98 7.4 45.4 27 -10.2 13.6
16:25 1017 30.03 846 24.98 7.7 45.9 28 -9.8 14.3
16:30 1017 30.03 846 24.98 7.7 45.8 28 -9.8 14.4
16:35 1017 30.03 846 24.98 7.7 45.8 28 -9.7 14.6
16:40 1017 30.03 846 24.98 7.6 45.7 29 -9.3 15.3
16:45 1017 30.03 846 24.98 7.6 45.7 30 -9 15.9
16:50 1017 30.03 846 24.98 7.6 45.6 28 -9.7 14.5
16:55 1017 30.03 846 24.98 7.5 45.4 29 -9.4 15.2
17:00 1017 30.03 846 24.98 7.5 45.4 29 -9.6 14.7
17:05 1017 30.03 846 24.98 7.5 45.4 29 -9.4 15.1
17:10 1017 30.03 846 24.98 7.5 45.6 28 -10 14.1
17:15 1017 30.03 846 24.98 7.5 45.4 29 -9.6 14.8
17:20 1017 30.03 846 24.98 7.4 45.3 29 -9.4 15.1
17:25 1017 30.03 846 24.98 7.3 45.2 30 -9 15.9
17:30 1017 30.03 846 24.98 7.1 44.8 31 -8.9 16
17:35 1017 30.03 846 24.98 7.1 44.7 31 -8.9 16
17:40 1017 30.03 846 24.98 7 44.6 31 -8.8 16.2
17:45 1017 30.03 846 24.98 6.9 44.5 32 -8.7 16.3
17:50 1017 30.03 846 24.98 6.8 44.3 32 -8.8 16.2
17:55 1017 30.03 846 24.98 6.7 44.1 32 -8.7 16.3
18:00 1017 30.03 846 24.98 6.6 43.9 32 -8.8 16.2
18:05 1017 30.03 846 24.98 6.5 43.6 33 -8.6 16.5
18:10 1017 30.03 846 24.98 6.3 43.3 34 -8.4 16.9
18:15 1017 30.03 846 24.98 6.2 43.1 35 -8.2 17.2
18:20 1017 30.03 846 24.98 6.2 43.2 33 -8.9 15.9
18:25 1017 30.03 846 24.98 6.3 43.3 35 -8 17.6
18:30 1017 30.03 846 24.98 6.1 43 35 -8.1 17.5
18:35 1017 30.03 846 24.98 6.1 42.9 36 -8 17.6
18:40 1017 30.03 846 24.98 6.1 42.9 36 -8 17.7
18:45 1017 30.03 846 24.98 6.1 42.9 35 -8.2 17.2
18:50 1017 30.03 846 24.98 6 42.8 35 -8.3 17
18:55 1017 30.03 846 24.98 5.9 42.6 36 -8 17.5
19:00 1017 30.03 846 24.98 5.9 42.5 36 -8.2 17.2
19:05 1017 30.03 847 25.01 5.8 42.4 36 -8.2 17.2
19:10 1017 30.03 847 25.01 5.7 42.3 36 -8.3 17.1
19:15 1017 30.03 847 25.01 5.7 42.3 35 -8.6 16.5
19:20 1017 30.03 847 25.01 5.7 42.3 34 -9 15.8
19:25 1017 30.03 847 25.01 5.8 42.4 34 -9.1 15.6
19:30 1017 30.03 847 25.01 5.9 42.6 34 -9 15.8
19:35 1017 30.03 847 25.01 5.9 42.7 34 -8.9 16
19:40 1017 30.03 846 24.98 5.9 42.6 35 -8.4 16.9
19:45 1017 30.03 846 24.98 5.7 42.3 37 -8 17.7
19:50 1017 30.03 846 24.98 5.6 42 38 -7.8 17.9
19:55 1017 30.03 847 25.01 5.4 41.7 38 -7.7 18.1
20:00 1017 30.03 847 25.01 5.3 41.5 39 -7.6 18.3
20:05 1017 30.03 846 24.98 5.2 41.4 39 -7.7 18.1
20:10 1017 30.03 846 24.98 5.3 41.5 39 -7.5 18.5
20:15 1017 30.03 846 24.98 5.3 41.5 39 -7.6 18.4
20:20 1017 30.03 846 24.98 5.3 41.6 40 -7.4 18.7
20:25 1017 30.03 846 24.98 5.4 41.7 39 -7.5 18.5
20:30 1017 30.03 846 24.98 5.5 41.9 39 -7.4 18.7
20:35 1017 30.03 846 24.98 5.6 42 39 -7.2 19
20:40 1017 30.03 846 24.98 5.6 42.1 40 -7.1 19.3
20:45 1017 30.03 846 24.98 5.5 41.9 41 -6.8 19.7
20:50 1017 30.03 846 24.98 5.4 41.7 41 -6.7 20
20:55 1017 30.03 846 24.98 5.4 41.7 41 -6.8 19.8
21:00 1017 30.03 846 24.98 5.5 41.8 41 -6.7 20
21:05 1017 30.03 846 24.98 5.4 41.8 42 -6.5 20.3
21:10 1017 30.03 846 24.98 5.4 41.8 41 -6.6 20
21:15 1017 30.03 846 24.98 5.5 41.8 41 -6.7 19.9
21:20 1017 30.03 846 24.98 5.6 42.1 40 -7 19.5
21:25 1017 30.03 846 24.98 5.7 42.3 40 -7 19.4
21:30 1017 30.03 846 24.98 5.8 42.4 39 -7.1 19.3
21:35 1017 30.03 846 24.98 5.8 42.5 39 -7 19.5
21:40 1017 30.03 846 24.98 5.9 42.7 40 -6.8 19.8
21:45 1017 30.03 846 24.98 5.7 42.3 43 -5.9 21.4
21:50 1017 30.03 846 24.98 5.1 41.2 44 -6.1 21
21:55 1017 30.03 846 24.98 4.7 40.4 45 -6.1 21
22:00 1017 30.03 846 24.98 4.5 40.1 46 -6.2 20.8
22:05 1017 30.03 846 24.98 4.5 40 46 -6.3 20.7
22:10 1017 30.03 846 24.98 4.5 40.1 44 -6.7 20
22:15 1017 30.03 846 24.98 4.6 40.4 43 -6.9 19.6
22:20 1017 30.03 846 24.98 4.9 40.8 43 -6.8 19.8
22:25 1017 30.03 846 24.98 5 40.9 43 -6.6 20.1
22:30 1017 30.03 846 24.98 5.1 41.1 44 -6.3 20.7
22:35 1017 30.03 846 24.98 5.2 41.3 44 -6.2 20.8
22:40 1017 30.03 847 25.01 5.2 41.4 44 -6.2 20.8
22:45 1017 30.03 847 25.01 5.3 41.6 43 -6.4 20.5
22:50 1017 30.03 847 25.01 5.5 41.9 42 -6.6 20.2
22:55 1017 30.03 847 25.01 5.5 42 41 -6.8 19.7
23:00 1018 30.06 847 25.01 5.7 42.2 40 -7 19.5
23:05 1018 30.06 847 25.01 5.7 42.2 39 -7.3 18.8
23:10 1017 30.03 847 25.01 5.8 42.4 40 -6.7 20
23:15 1017 30.03 847 25.01 5.7 42.3 42 -6.4 20.6
23:20 1017 30.03 847 25.01 5.6 42.1 42 -6.4 20.6
23:25 1017 30.03 847 25.01 5.4 41.7 45 -5.6 21.8
23:30 1017 30.03 846 24.98 5.1 41.2 46 -5.5 22.2
23:35 1017 30.03 846 24.98 5.1 41.2 46 -5.5 22.1
23:40 1017 30.03 846 24.98 5.1 41.2 49 -4.8 23.3
23:45 1017 30.03 846 24.98 4.9 40.8 50 -4.7 23.5
23:50 1017 30.03 846 24.98 4.6 40.2 51 -4.7 23.6
23:55 1017 30.03 846 24.98 4.4 39.9 51 -4.9 23.2
24:00 1017 30.03 846 24.98 4.4 39.9 51 -4.8 23.4